KPOC/POC METAR and TAF weather

Enter ICAO airport designator
Station Type Date Time Source
KPOC METAR 2020/01/21 17:47 UTC NOAA

KPOC 211747Z 00000KT 10SM SCT013 BKN024 12/09 A3017


Station Type Date Time Source
KPOC Decoded METAR 2020/01/21 17:47 UTC NOAA

La Verne / Brackett, CA, United States (KPOC) 34-06N 117-47W
Jan 21, 2020 - 12:47 PM EST / 2020.01.21 1747 UTC
Wind: Calm:0
Visibility: 10 mile(s):0
Sky conditions: mostly cloudy
Temperature: 53 F (12 C)
Dew Point: 48 F (9 C)
Relative Humidity: 81%
Pressure (altimeter): 30.17 in. Hg (1021 hPa)
ob: KPOC 211747Z 00000KT 10SM SCT013 BKN024 12/09 A3017
cycle: 18

Station Type Date Time Source
KPOC TAF UTC NOAA

Error!

Example: see airport list